Time;durP1;ratioP1;P1;durP2;ratioP2;P2;SDS_P1;SDS_P2;PMS_P1;PMS_P2;Temp;Humidity;BMP_temperature;BMP_pressure;BME280_temperature;BME280_humidity;BME280_pressure;Samples;Min_cycle;Max_cycle;Signal;HPM_P1;HPM_P2
2022/10/23 00:01:58;;;;;;;4.97;3.50;;;;;;;22.67;42.50;102367.19;4195369;28;20044;-64
2022/10/23 00:04:01;;;;;;;4.85;3.17;;;;;;;22.68;42.50;102378.13;4188587;28;20479;-64
2022/10/23 00:06:06;;;;;;;6.95;3.83;;;;;;;22.69;42.29;102377.00;4192240;28;20063;-63
2022/10/23 00:08:08;;;;;;;4.20;2.80;;;;;;;22.71;42.44;102379.53;4197950;28;20162;-64
2022/10/23 00:10:12;;;;;;;5.15;3.55;;;;;;;22.68;42.32;102372.53;4198187;28;20078;-63
2022/10/23 00:12:13;;;;;;;5.22;3.13;;;;;;;22.72;42.15;102382.06;4188665;28;20086;-64
2022/10/23 00:14:17;;;;;;;7.10;3.42;;;;;;;22.72;42.25;102382.06;4186579;28;20094;-63
2022/10/23 00:16:18;;;;;;;4.75;3.00;;;;;;;22.72;42.30;102384.84;4196984;28;20045;-63
2022/10/23 00:18:19;;;;;;;4.95;3.20;;;;;;;22.70;42.64;102398.22;4190013;28;20083;-64
2022/10/23 00:20:21;;;;;;;3.88;2.92;;;;;;;22.73;42.20;102400.50;4188722;28;20036;-64
2022/10/23 00:22:22;;;;;;;4.97;3.05;;;;;;;22.74;42.48;102387.41;4191926;28;20477;-63
2022/10/23 00:24:23;;;;;;;6.35;3.53;;;;;;;22.74;42.55;102402.19;4181224;28;20041;-63
2022/10/23 00:26:24;;;;;;;4.53;2.85;;;;;;;22.75;42.46;102405.81;4181074;28;20045;-64
2022/10/23 00:28:26;;;;;;;5.63;3.85;;;;;;;22.76;42.49;102399.97;4185013;28;20364;-63
2022/10/23 00:30:30;;;;;;;5.05;3.03;;;;;;;22.78;42.46;102400.56;4190799;28;20105;-63
2022/10/23 00:32:31;;;;;;;7.47;3.28;;;;;;;22.76;42.57;102405.56;4190990;28;20041;-63
2022/10/23 00:34:32;;;;;;;6.70;3.10;;;;;;;22.79;42.38;102405.03;4187448;28;20093;-64
2022/10/23 00:36:34;;;;;;;5.40;3.22;;;;;;;22.80;42.18;102403.09;4190237;28;20491;-64
2022/10/23 00:38:36;;;;;;;6.18;2.80;;;;;;;22.62;42.36;102373.56;4186852;28;20044;-64
2022/10/23 00:40:38;;;;;;;5.00;3.08;;;;;;;22.81;42.17;102402.84;4196178;28;20437;-63
2022/10/23 00:42:39;;;;;;;8.77;3.53;;;;;;;22.83;42.50;102410.97;4185721;28;20111;-64
2022/10/23 00:44:40;;;;;;;4.63;3.17;;;;;;;22.83;42.45;102410.97;4193855;28;20040;-63
2022/10/23 00:46:41;;;;;;;4.45;3.08;;;;;;;22.82;42.16;102415.72;4192904;28;20429;-63
2022/10/23 00:48:45;;;;;;;4.60;3.20;;;;;;;22.84;42.28;102409.84;4196524;28;20045;-64
2022/10/23 00:50:48;;;;;;;5.28;3.17;;;;;;;22.84;42.58;102405.13;4195502;28;20032;-63
2022/10/23 00:52:52;;;;;;;5.60;3.10;;;;;;;22.87;42.40;102405.72;4192455;28;20090;-63
2022/10/23 00:54:54;;;;;;;4.95;3.00;;;;;;;22.87;42.17;102411.31;4196556;28;20055;-63
2022/10/23 00:56:59;;;;;;;4.75;3.10;;;;;;;22.87;42.12;102411.31;4191467;28;20098;-64
2022/10/23 00:59:00;;;;;;;4.87;3.00;;;;;;;22.88;42.51;102412.97;4197097;28;20040;-64
2022/10/23 01:01:15;;;;;;;4.20;3.05;;;;;;;22.89;42.40;102420.25;4197374;28;20273;-63
2022/10/23 01:03:19;;;;;;;3.67;2.85;;;;;;;22.90;42.26;102421.97;4196780;28;20028;-63
2022/10/23 01:05:31;;;;;;;4.07;3.08;;;;;;;22.90;42.47;102428.38;4196770;28;20074;-64
2022/10/23 01:07:53;;;;;;;5.30;3.10;;;;;;;22.91;42.36;102435.69;4196630;28;20076;-64
2022/10/23 01:10:00;;;;;;;4.63;3.30;;;;;;;22.94;42.04;102434.28;4185286;28;20439;-64
2022/10/23 01:12:25;;;;;;;3.92;2.97;;;;;;;22.93;42.23;102438.19;4183970;28;20290;-64
2022/10/23 01:14:38;;;;;;;4.43;3.00;;;;;;;22.76;42.11;102394.41;4183304;28;20107;-63
2022/10/23 01:17:16;;;;;;;4.05;3.22;;;;;;;22.94;42.19;102423.13;4180606;28;20045;-63
2022/10/23 01:19:35;;;;;;;6.43;3.22;;;;;;;22.96;41.99;102420.94;4183037;28;20045;-64
2022/10/23 01:22:12;;;;;;;5.20;3.15;;;;;;;22.93;41.90;102422.28;4196936;28;20040;-64
2022/10/23 01:24:42;;;;;;;4.35;2.97;;;;;;;22.96;41.97;102409.78;4196972;28;20041;-64
2022/10/23 01:27:19;;;;;;;3.90;2.70;;;;;;;22.96;41.98;102416.19;4191981;28;20094;-63
2022/10/23 01:29:38;;;;;;;3.95;3.00;;;;;;;22.99;42.09;102420.41;4200083;28;20590;-64
2022/10/23 01:31:49;;;;;;;5.35;3.35;;;;;;;23.00;42.19;102422.09;4184385;28;20488;-65
2022/10/23 01:33:56;;;;;;;4.00;2.92;;;;;;;22.80;41.87;102384.41;4199187;28;20040;-64
2022/10/23 01:36:05;;;;;;;4.68;3.20;;;;;;;23.00;42.16;102416.50;4197124;28;20101;-63
2022/10/23 01:38:14;;;;;;;9.18;3.50;;;;;;;23.00;42.34;102416.50;4193572;28;20488;-64
2022/10/23 01:40:25;;;;;;;8.30;3.53;;;;;;;23.03;42.10;102411.25;4190285;28;20044;-64
2022/10/23 01:42:37;;;;;;;4.57;3.53;;;;;;;23.03;42.22;102402.03;4197021;28;20078;-63
2022/10/23 01:44:50;;;;;;;4.63;3.30;;;;;;;23.02;42.24;102403.16;4194993;28;20040;-64
2022/10/23 01:46:53;;;;;;;7.35;2.47;;;;;;;23.00;42.23;102405.34;4197542;28;20488;-62
2022/10/23 01:48:58;;;;;;;17.40;3.78;;;;;;;22.90;42.06;102400.47;4192501;28;20094;-67
2022/10/23 01:51:03;;;;;;;5.05;2.97;;;;;;;22.99;42.15;102412.03;4191729;28;20442;-62
2022/10/23 01:53:06;;;;;;;;;;;;;;;22.98;42.03;102411.19;4187605;28;20492;-62
2022/10/23 01:55:17;;;;;;;6.05;2.90;;;;;;;23.06;42.02;102418.28;4190735;28;19924;-63
2022/10/23 01:57:21;;;;;;;4.28;3.03;;;;;;;23.07;41.93;102411.56;4184377;28;20103;-63
2022/10/23 01:59:29;;;;;;;7.30;3.20;;;;;;;23.07;42.23;102411.56;4192635;28;20029;-61
2022/10/23 02:01:33;;;;;;;4.40;3.15;;;;;;;23.06;41.83;102412.69;4190350;28;20484;-62
2022/10/23 02:03:40;;;;;;;8.70;3.57;;;;;;;23.07;41.62;102414.38;4187620;28;20056;-63
2022/10/23 02:05:42;;;;;;;5.15;3.10;;;;;;;22.98;41.89;102402.81;4183502;28;20351;-62
2022/10/23 02:07:44;;;;;;;5.32;3.08;;;;;;;23.03;41.88;102411.25;4196864;28;20040;-65
2022/10/23 02:09:45;;;;;;;6.53;3.45;;;;;;;23.05;42.05;102420.22;4190050;28;20036;-64
2022/10/23 02:12:16;;;;;;;6.72;3.30;;;;;;;23.02;42.11;102425.47;4194108;28;20044;-63
2022/10/23 02:14:35;;;;;;;6.20;3.33;;;;;;;23.05;41.67;102425.81;4187956;28;20049;-63
2022/10/23 02:16:36;;;;;;;5.18;2.85;;;;;;;23.07;41.70;102428.34;4187716;28;20052;-63
2022/10/23 02:18:48;;;;;;;5.53;3.13;;;;;;;23.06;41.68;102433.06;4190152;28;20049;-64
2022/10/23 02:20:57;;;;;;;12.95;3.22;;;;;;;23.06;41.64;102438.66;4192081;28;20552;-64
2022/10/23 02:23:07;;;;;;;5.90;2.85;;;;;;;23.09;42.06;102431.69;4184006;28;20053;-64
2022/10/23 02:25:16;;;;;;;6.32;2.92;;;;;;;23.09;41.75;102434.47;4192989;28;20044;-63
2022/10/23 02:27:31;;;;;;;4.75;3.15;;;;;;;23.10;41.52;102438.16;4190038;28;20479;-64
2022/10/23 02:29:56;;;;;;;6.93;3.53;;;;;;;23.10;41.69;102436.19;4186452;28;20033;-62
2022/10/23 02:31:57;;;;;;;8.38;4.00;;;;;;;23.11;41.73;102435.09;4195664;28;20041;-65
2022/10/23 02:33:59;;;;;;;5.80;3.33;;;;;;;23.07;41.70;102418.00;4190830;28;20052;-64
2022/10/23 02:36:00;;;;;;;5.13;3.10;;;;;;;23.11;41.79;102429.50;4192737;28;20441;-64
2022/10/23 02:38:02;;;;;;;4.35;3.30;;;;;;;23.11;41.61;102423.91;4184748;28;20041;-63
2022/10/23 02:40:04;;;;;;;7.95;3.40;;;;;;;23.11;41.95;102428.66;4181126;28;20484;-63
2022/10/23 02:42:19;;;;;;;6.47;3.40;;;;;;;23.08;41.75;102432.81;4193202;28;20106;-63
2022/10/23 02:44:20;;;;;;;8.77;3.92;;;;;;;23.12;41.82;102449.88;4189913;28;20134;-62
2022/10/23 02:46:39;;;;;;;7.88;4.10;;;;;;;23.09;41.47;102442.88;4188642;28;20505;-61
2022/10/23 02:49:21;;;;;;;8.85;3.50;;;;;;;22.97;41.72;102415.09;4193884;28;20105;-63
2022/10/23 02:51:40;;;;;;;5.97;3.70;;;;;;;23.12;41.85;102436.78;4191833;28;20086;-61
2022/10/23 02:53:51;;;;;;;5.45;3.80;;;;;;;23.14;41.70;102428.13;4194586;28;20457;-61
2022/10/23 02:56:04;;;;;;;6.68;4.00;;;;;;;23.12;41.79;102420.00;4190262;28;20094;-63
2022/10/23 02:58:24;;;;;;;7.22;4.00;;;;;;;23.13;41.73;102415.28;4189383;28;20049;-63
2022/10/23 03:00:31;;;;;;;6.90;4.13;;;;;;;23.13;41.63;102410.53;4193394;28;20052;-63
2022/10/23 03:02:39;;;;;;;5.30;3.40;;;;;;;23.11;41.64;102407.16;4188367;28;20040;-63
2022/10/23 03:04:42;;;;;;;8.50;4.07;;;;;;;22.89;41.54;102365.28;4189234;28;20492;-63
2022/10/23 03:06:44;;;;;;;7.43;3.60;;;;;;;23.12;41.79;102397.69;4189436;28;20044;-63
2022/10/23 03:08:53;;;;;;;7.65;3.95;;;;;;;23.01;41.78;102385.56;4183815;28;20126;-63
2022/10/23 03:10:54;;;;;;;5.47;3.50;;;;;;;23.13;41.58;102398.50;4191194;28;20045;-63
2022/10/23 03:12:55;;;;;;;6.72;3.92;;;;;;;23.13;41.82;102392.94;4204397;28;20098;-63
2022/10/23 03:14:57;;;;;;;5.40;3.75;;;;;;;23.12;41.44;102386.50;4198263;28;20062;-63
2022/10/23 03:16:58;;;;;;;4.45;3.40;;;;;;;23.13;41.68;102385.41;4195309;28;20044;-63
2022/10/23 03:18:59;;;;;;;5.82;3.70;;;;;;;23.07;41.40;102373.31;4190213;28;20095;-63
2022/10/23 03:21:00;;;;;;;5.93;3.45;;;;;;;23.10;41.77;102385.94;4189077;28;20052;-63
2022/10/23 03:23:02;;;;;;;4.60;3.60;;;;;;;23.11;41.74;102382.03;4188497;28;20117;-64
2022/10/23 03:25:04;;;;;;;4.45;3.35;;;;;;;23.06;41.41;102374.44;4191308;28;20381;-63
2022/10/23 03:27:05;;;;;;;7.05;3.70;;;;;;;23.12;41.58;102375.34;4196623;28;20044;-64
2022/10/23 03:29:06;;;;;;;7.07;3.80;;;;;;;23.12;41.93;102380.91;4188427;28;20049;-66
2022/10/23 03:31:07;;;;;;;5.50;3.72;;;;;;;23.12;41.63;102378.13;4186535;28;20107;-64
2022/10/23 03:33:09;;;;;;;6.00;3.67;;;;;;;23.13;41.82;102371.44;4192141;28;20522;-64
2022/10/23 03:35:13;;;;;;;5.65;3.90;;;;;;;23.13;41.87;102365.00;4182572;28;20033;-63
2022/10/23 03:37:14;;;;;;;14.55;4.20;;;;;;;23.13;41.66;102359.41;4212280;28;20044;-63
2022/10/23 03:39:19;;;;;;;10.95;4.25;;;;;;;23.12;41.82;102353.00;4214984;28;20101;-63
2022/10/23 03:41:22;;;;;;;13.68;4.13;;;;;;;23.11;41.88;102356.91;4211505;28;20097;-64
2022/10/23 03:43:24;;;;;;;6.85;4.10;;;;;;;23.03;41.89;102337.81;4198344;28;20426;-63
2022/10/23 03:45:25;;;;;;;6.95;3.55;;;;;;;23.11;41.96;102350.47;4198152;28;20403;-63
2022/10/23 03:47:31;;;;;;;6.43;3.70;;;;;;;23.10;42.02;102354.38;4196091;28;20048;-63
2022/10/23 03:49:35;;;;;;;5.63;3.22;;;;;;;23.08;41.68;102355.47;4196824;28;20419;-64
2022/10/23 03:51:36;;;;;;;7.65;4.00;;;;;;;23.07;41.91;102361.31;4196345;28;20085;-64
2022/10/23 03:53:40;;;;;;;9.25;4.38;;;;;;;23.07;41.93;102369.69;4199320;28;20376;-64
2022/10/23 03:55:43;;;;;;;7.32;3.58;;;;;;;23.07;41.84;102375.28;4197560;28;20488;-63
2022/10/23 03:57:44;;;;;;;8.10;3.50;;;;;;;23.06;42.05;102380.03;4197138;28;20110;-64
2022/10/23 03:59:46;;;;;;;6.53;3.78;;;;;;;23.06;42.10;102373.59;4198117;28;20090;-64
2022/10/23 04:01:47;;;;;;;4.90;3.35;;;;;;;23.05;42.07;102357.97;4197967;28;20445;-64
2022/10/23 04:03:48;;;;;;;6.25;4.13;;;;;;;22.92;42.24;102336.03;4197518;28;20118;-63
2022/10/23 04:06:01;;;;;;;4.95;3.53;;;;;;;23.01;42.23;102354.84;4197997;28;20032;-63
2022/10/23 04:08:03;;;;;;;7.25;4.03;;;;;;;23.01;42.09;102365.16;4198040;28;20110;-64
2022/10/23 04:10:05;;;;;;;7.68;3.95;;;;;;;22.86;42.04;102334.22;4187050;28;20105;-63
2022/10/23 04:12:08;;;;;;;5.20;3.88;;;;;;;22.98;42.29;102363.72;4197685;28;20044;-64
2022/10/23 04:14:12;;;;;;;6.97;3.33;;;;;;;22.98;42.09;102368.47;4198123;28;20024;-64
2022/10/23 04:16:19;;;;;;;4.73;3.50;;;;;;;22.87;42.12;102347.94;4197658;28;20445;-64
2022/10/23 04:18:20;;;;;;;6.57;3.83;;;;;;;22.97;42.20;102364.84;4196618;28;20040;-64
2022/10/23 04:20:24;;;;;;;6.90;3.83;;;;;;;22.97;42.46;102370.41;4196883;28;20513;-64
2022/10/23 04:22:31;;;;;;;8.17;3.77;;;;;;;22.97;42.36;102377.97;4197863;28;20044;-63
2022/10/23 04:24:35;;;;;;;6.70;3.80;;;;;;;22.97;42.26;102375.16;4197776;28;20343;-63
2022/10/23 04:26:36;;;;;;;5.20;4.03;;;;;;;22.99;41.96;102371.00;4197425;28;20620;-63
2022/10/23 04:28:38;;;;;;;8.68;3.80;;;;;;;22.98;42.12;102377.69;4206745;28;20114;-64
2022/10/23 04:30:40;;;;;;;5.28;3.78;;;;;;;22.98;42.51;102379.63;4196716;28;20419;-63
2022/10/23 04:32:41;;;;;;;8.55;4.15;;;;;;;22.96;42.43;102379.06;4192844;28;20113;-62
2022/10/23 04:34:43;;;;;;;9.30;4.15;;;;;;;22.97;42.54;102380.75;4197014;28;20074;-64
2022/10/23 04:36:47;;;;;;;6.78;3.38;;;;;;;22.36;42.51;102259.94;4197706;28;20041;-64
2022/10/23 04:38:52;;;;;;;5.03;3.67;;;;;;;22.96;42.35;102356.75;4197571;28;20045;-64
2022/10/23 04:40:53;;;;;;;5.03;3.58;;;;;;;22.95;42.29;102364.25;4197544;28;20087;-64
2022/10/23 04:43:03;;;;;;;5.72;3.70;;;;;;;22.95;42.08;102358.66;4197831;28;20094;-64
2022/10/23 04:45:05;;;;;;;6.07;3.92;;;;;;;22.94;42.16;102351.41;4209975;28;20040;-64
2022/10/23 04:47:12;;;;;;;7.85;4.03;;;;;;;22.94;42.21;102358.94;4213999;28;20421;-64
2022/10/23 04:49:13;;;;;;;5.65;4.15;;;;;;;22.93;42.35;102354.47;4210198;28;20066;-64
2022/10/23 04:51:14;;;;;;;5.88;3.45;;;;;;;22.93;42.21;102360.03;4197700;28;20472;-63
2022/10/23 04:53:19;;;;;;;6.30;3.53;;;;;;;22.90;42.21;102352.19;4197769;28;20036;-63
2022/10/23 04:55:20;;;;;;;6.00;3.87;;;;;;;22.87;42.53;102353.53;4197555;28;20434;-64
2022/10/23 04:57:22;;;;;;;6.63;3.72;;;;;;;22.90;42.36;102352.19;4197556;28;20285;-64
2022/10/23 04:59:23;;;;;;;5.45;3.60;;;;;;;22.82;42.20;102353.47;4197500;28;20045;-64
2022/10/23 05:01:24;;;;;;;7.47;3.60;;;;;;;22.90;42.07;102364.19;4198204;28;20036;-63
2022/10/23 05:03:25;;;;;;;6.00;4.00;;;;;;;22.76;42.28;102337.75;4198730;28;20037;-64
2022/10/23 05:05:29;;;;;;;5.30;4.00;;;;;;;22.86;42.20;102362.97;4200389;28;20105;-63
2022/10/23 05:07:37;;;;;;;6.57;3.55;;;;;;;22.88;42.52;102355.22;4201108;28;20090;-64
2022/10/23 05:09:38;;;;;;;5.93;3.83;;;;;;;22.88;42.41;102354.38;4201112;28;20082;-64
2022/10/23 05:11:39;;;;;;;4.53;3.70;;;;;;;22.87;42.33;102352.69;4198273;28;20040;-64
2022/10/23 05:13:41;;;;;;;4.32;3.58;;;;;;;22.88;42.39;102357.16;4184486;28;20074;-64
2022/10/23 05:15:42;;;;;;;5.65;3.55;;;;;;;22.87;42.33;102355.47;4197202;28;20041;-64
2022/10/23 05:17:48;;;;;;;5.80;3.70;;;;;;;22.75;42.29;102336.91;4201184;28;20044;-63
2022/10/23 05:19:54;;;;;;;4.60;3.72;;;;;;;22.75;42.49;102342.47;4200837;28;20479;-65
2022/10/23 05:21:58;;;;;;;5.97;3.55;;;;;;;22.83;42.48;102355.97;4200505;28;20439;-64
2022/10/23 05:24:00;;;;;;;5.57;3.50;;;;;;;22.87;42.43;102355.47;4200648;28;20044;-64
2022/10/23 05:26:03;;;;;;;4.65;3.60;;;;;;;22.87;42.40;102356.31;4200213;28;20544;-64
2022/10/23 05:28:04;;;;;;;4.38;3.78;;;;;;;22.88;42.54;102369.16;4200212;28;20036;-63
2022/10/23 05:30:06;;;;;;;4.40;3.50;;;;;;;22.88;42.67;102363.59;4200179;28;20049;-64
2022/10/23 05:32:13;;;;;;;6.05;3.60;;;;;;;22.86;42.61;102365.78;4200308;28;20449;-65
2022/10/23 05:34:17;;;;;;;5.53;3.58;;;;;;;22.88;42.33;102363.59;4200484;28;20468;-63
2022/10/23 05:36:18;;;;;;;3.78;3.13;;;;;;;22.89;42.46;102347.66;4200912;28;20070;-63
2022/10/23 05:38:20;;;;;;;5.30;3.50;;;;;;;22.88;42.47;102351.56;4200433;28;20044;-63
2022/10/23 05:40:22;;;;;;;5.93;3.78;;;;;;;22.88;42.77;102341.25;4200367;28;20087;-62
2022/10/23 05:42:24;;;;;;;6.20;3.38;;;;;;;22.89;42.37;102353.25;4200270;28;20032;-63
2022/10/23 05:44:25;;;;;;;4.45;3.22;;;;;;;22.88;42.64;102358.00;4200450;28;20078;-64
2022/10/23 05:46:27;;;;;;;5.28;3.45;;;;;;;22.89;42.34;102358.84;4199990;28;20436;-64
2022/10/23 05:48:29;;;;;;;4.65;3.63;;;;;;;22.88;42.68;102351.56;4199962;28;20454;-64
2022/10/23 05:50:30;;;;;;;4.40;3.33;;;;;;;22.88;42.61;102351.56;4199941;28;20102;-63
2022/10/23 05:52:34;;;;;;;4.05;2.97;;;;;;;22.77;42.69;102339.41;4199713;28;20082;-63
2022/10/23 05:54:35;;;;;;;4.60;3.60;;;;;;;22.86;42.65;102339.81;4200258;28;20093;-63
2022/10/23 05:56:40;;;;;;;4.80;3.55;;;;;;;22.86;42.48;102343.44;4199970;28;20033;-63
2022/10/23 05:58:41;;;;;;;4.88;3.70;;;;;;;22.76;42.48;102337.75;4200049;28;20079;-63
2022/10/23 06:00:42;;;;;;;4.78;3.40;;;;;;;22.86;42.40;102348.19;4200163;28;20040;-63
2022/10/23 06:02:44;;;;;;;5.07;3.13;;;;;;;22.87;42.58;102349.91;4200205;28;20097;-63
2022/10/23 06:04:45;;;;;;;4.45;2.95;;;;;;;22.84;42.45;102352.09;4199723;28;20036;-63
2022/10/23 06:06:49;;;;;;;5.22;3.30;;;;;;;22.88;42.45;102354.38;4200059;28;20102;-63
2022/10/23 06:08:50;;;;;;;4.55;3.35;;;;;;;22.87;42.39;102338.72;4199958;28;20040;-63
2022/10/23 06:10:52;;;;;;;4.38;3.22;;;;;;;22.88;42.39;102340.41;4198983;28;20453;-64
2022/10/23 06:12:53;;;;;;;4.93;3.63;;;;;;;22.88;42.42;102343.19;4199470;28;20094;-63
2022/10/23 06:14:54;;;;;;;4.45;3.30;;;;;;;22.87;42.46;102339.56;4199449;28;20032;-63
2022/10/23 06:16:55;;;;;;;4.32;3.15;;;;;;;22.82;42.19;102331.13;4199355;28;20158;-63
2022/10/23 06:18:59;;;;;;;4.43;3.42;;;;;;;22.67;42.48;102303.03;4199640;28;20044;-64
2022/10/23 06:21:04;;;;;;;4.82;3.40;;;;;;;22.86;42.11;102337.84;4198587;28;20106;-63
2022/10/23 06:23:08;;;;;;;5.53;3.15;;;;;;;22.86;42.42;102343.44;4198548;28;20101;-63
2022/10/23 06:25:10;;;;;;;5.28;3.58;;;;;;;22.85;42.34;102338.97;4198931;28;20536;-64
2022/10/23 06:27:11;;;;;;;4.93;3.38;;;;;;;22.86;42.13;102334.22;4200016;28;20114;-63
2022/10/23 06:29:12;;;;;;;4.70;3.65;;;;;;;22.85;42.20;102333.38;4199671;28;20109;-63
2022/10/23 06:31:16;;;;;;;5.38;3.45;;;;;;;22.83;42.30;102339.25;4199700;28;20044;-63
2022/10/23 06:33:18;;;;;;;4.80;3.30;;;;;;;22.81;42.38;102335.84;4198732;28;20048;-63
2022/10/23 06:35:19;;;;;;;5.78;3.13;;;;;;;22.83;42.18;102333.66;4184559;28;20114;-63
2022/10/23 06:37:23;;;;;;;4.10;3.40;;;;;;;22.83;42.40;102333.66;4190796;28;20509;-63
2022/10/23 06:39:24;;;;;;;3.85;2.88;;;;;;;22.84;42.21;102326.13;4198660;28;20087;-63
2022/10/23 06:41:26;;;;;;;4.22;3.03;;;;;;;22.84;42.11;102343.72;4198184;28;20120;-63
2022/10/23 06:43:27;;;;;;;5.30;3.38;;;;;;;22.83;42.52;102335.59;4186422;28;20041;-63
2022/10/23 06:45:31;;;;;;;3.88;2.90;;;;;;;22.83;42.05;102336.44;4182624;28;20041;-64
2022/10/23 06:47:32;;;;;;;3.67;3.33;;;;;;;22.81;42.05;102341.44;4192885;28;20094;-63
2022/10/23 06:49:33;;;;;;;5.07;3.15;;;;;;;22.83;42.18;102344.81;4199154;28;20078;-63
2022/10/23 06:51:35;;;;;;;3.47;2.92;;;;;;;22.83;42.12;102344.81;4199289;28;20109;-63
2022/10/23 06:53:36;;;;;;;4.63;3.40;;;;;;;22.82;42.57;102337.56;4197803;28;20140;-63
2022/10/23 06:55:40;;;;;;;3.95;3.20;;;;;;;22.80;42.17;102331.38;4199129;28;20098;-64
2022/10/23 06:57:42;;;;;;;4.90;3.13;;;;;;;22.63;42.28;102305.47;4199106;28;20086;-63
2022/10/23 06:59:46;;;;;;;3.88;3.33;;;;;;;22.72;42.43;102311.44;4199892;28;20037;-63
2022/10/23 07:01:50;;;;;;;4.30;3.50;;;;;;;22.82;42.39;102326.41;4198066;28;20040;-63
2022/10/23 07:03:51;;;;;;;5.13;3.10;;;;;;;22.82;42.34;102326.41;4198807;28;20033;-63
2022/10/23 07:05:52;;;;;;;4.30;3.30;;;;;;;22.82;42.38;102334.75;4198740;28;20438;-64
2022/10/23 07:07:53;;;;;;;3.92;3.17;;;;;;;22.80;42.18;102342.53;4199210;28;20426;-63
2022/10/23 07:09:55;;;;;;;6.38;4.10;;;;;;;22.82;42.29;102331.97;4199187;28;20535;-63
2022/10/23 07:11:56;;;;;;;3.75;3.05;;;;;;;22.76;42.27;102321.00;4198749;28;20045;-63
2022/10/23 07:13:57;;;;;;;4.40;3.00;;;;;;;22.82;42.22;102333.94;4198671;28;20036;-63
2022/10/23 07:15:58;;;;;;;4.90;2.90;;;;;;;22.82;42.36;102329.19;4198322;28;20082;-63
2022/10/23 07:18:06;;;;;;;3.65;2.90;;;;;;;22.80;42.21;102331.38;4210459;28;20044;-63
2022/10/23 07:20:07;;;;;;;3.65;2.90;;;;;;;22.81;42.38;102340.59;4213441;28;20109;-63
2022/10/23 07:22:09;;;;;;;4.22;3.03;;;;;;;22.80;42.23;102341.69;4206751;28;20462;-63
2022/10/23 07:24:13;;;;;;;3.53;2.85;;;;;;;22.79;42.66;102329.69;4198421;28;20076;-63
2022/10/23 07:26:15;;;;;;;4.03;2.90;;;;;;;22.80;42.39;102319.38;4197310;28;20040;-63
2022/10/23 07:28:16;;;;;;;3.45;2.75;;;;;;;22.78;42.25;102314.06;4197891;28;20040;-64
2022/10/23 07:30:18;;;;;;;3.10;2.80;;;;;;;22.61;42.34;102279.81;4197904;28;20078;-64
2022/10/23 07:32:19;;;;;;;3.92;3.03;;;;;;;22.79;42.28;102304.56;4197602;28;20044;-64
2022/10/23 07:34:20;;;;;;;3.88;2.90;;;;;;;22.79;42.26;102295.38;4198482;28;20443;-64
2022/10/23 07:36:25;;;;;;;4.88;3.13;;;;;;;22.78;42.16;102302.91;4197316;28;20105;-64
2022/10/23 07:38:31;;;;;;;4.72;3.17;;;;;;;22.71;42.46;102291.06;4197274;28;20045;-63
2022/10/23 07:40:32;;;;;;;4.20;3.00;;;;;;;22.66;42.34;102293.81;4197298;28;20040;-64
2022/10/23 07:42:41;;;;;;;4.05;3.15;;;;;;;22.77;42.47;102312.38;4197851;28;20088;-64
2022/10/23 07:44:43;;;;;;;3.90;3.13;;;;;;;22.74;42.47;102301.72;4197227;28;20048;-64
2022/10/23 07:46:47;;;;;;;3.33;2.72;;;;;;;22.76;42.33;102305.09;4196747;28;20098;-62
2022/10/23 07:48:51;;;;;;;4.25;2.92;;;;;;;22.76;42.11;102305.09;4200253;28;20078;-64
2022/10/23 07:50:56;;;;;;;4.22;3.00;;;;;;;22.76;42.29;102321.84;4213997;28;20491;-64
2022/10/23 07:52:57;;;;;;;;;;;;;;;22.75;42.38;102320.16;4200270;28;20028;-64
2022/10/23 07:55:01;;;;;;;3.80;2.90;;;;;;;22.82;42.27;102315.22;4197232;28;19966;-64
2022/10/23 07:57:03;;;;;;;3.30;2.83;;;;;;;22.79;42.59;102312.13;4194907;28;20036;-66
2022/10/23 07:59:04;;;;;;;3.85;2.83;;;;;;;22.79;42.08;102304.56;4185651;28;20300;-63
2022/10/23 08:01:15;;;;;;;5.70;2.90;;;;;;;22.73;42.35;102288.06;4197045;28;20090;-64
2022/10/23 08:03:16;;;;;;;3.30;2.97;;;;;;;22.77;42.54;102294.75;4197210;28;20040;-64
2022/10/23 08:05:19;;;;;;;3.53;2.88;;;;;;;22.73;42.43;102285.25;4197898;28;20029;-64
2022/10/23 08:07:20;;;;;;;3.55;2.88;;;;;;;22.60;42.33;102264.16;4196863;28;20094;-64
2022/10/23 08:09:22;;;;;;;3.15;2.85;;;;;;;22.75;42.51;102283.88;4197536;28;20102;-64
2022/10/23 08:11:26;;;;;;;2.65;2.42;;;;;;;22.74;42.47;102298.94;4196811;28;20094;-63
2022/10/23 08:13:28;;;;;;;3.75;2.72;;;;;;;22.73;42.40;102299.22;4187852;28;20102;-64
2022/10/23 08:15:29;;;;;;;3.20;2.53;;;;;;;22.73;42.55;102310.38;4181201;28;20036;-64
2022/10/23 08:17:30;;;;;;;3.58;2.72;;;;;;;22.72;42.50;102303.91;4196794;28;20106;-64
2022/10/23 08:19:31;;;;;;;3.22;2.92;;;;;;;22.72;42.40;102312.28;4180971;28;20045;-64
2022/10/23 08:21:33;;;;;;;3.28;2.90;;;;;;;22.71;42.30;102313.41;4181198;28;20048;-64
2022/10/23 08:23:34;;;;;;;3.42;3.00;;;;;;;22.71;42.44;102321.78;4197563;28;20095;-64
2022/10/23 08:25:35;;;;;;;3.17;2.83;;;;;;;22.72;42.37;102320.66;4196406;28;20041;-64
2022/10/23 08:27:37;;;;;;;4.43;3.35;;;;;;;22.72;42.56;102326.25;4196691;28;20044;-63
2022/10/23 08:29:41;;;;;;;4.07;2.85;;;;;;;22.72;42.62;102319.81;4197000;28;20521;-64
2022/10/23 08:31:43;;;;;;;4.38;2.80;;;;;;;22.73;42.40;102315.97;4195575;28;20040;-63
2022/10/23 08:33:44;;;;;;;3.80;3.03;;;;;;;22.72;42.60;102319.81;4196396;28;20033;-64
2022/10/23 08:35:49;;;;;;;2.67;2.45;;;;;;;22.59;42.28;102290.41;4196505;28;20093;-64
2022/10/23 08:37:50;;;;;;;4.90;2.80;;;;;;;22.73;42.55;102316.78;4197332;28;20090;-64
2022/10/23 08:39:51;;;;;;;3.50;2.80;;;;;;;22.75;42.56;102324.91;4197255;28;20040;-64
2022/10/23 08:41:53;;;;;;;3.75;3.15;;;;;;;22.62;42.67;102316.91;4199886;28;20036;-64
2022/10/23 08:44:20;;;;;;;3.58;2.90;;;;;;;22.73;42.26;102341.91;4197622;28;20098;-64
2022/10/23 08:46:28;;;;;;;2.70;2.50;;;;;;;22.55;42.22;102305.97;4197134;28;20110;-64
2022/10/23 08:48:55;;;;;;;3.47;2.83;;;;;;;22.72;42.44;102343.00;4195276;28;20074;-64
2022/10/23 08:51:04;;;;;;;3.25;2.63;;;;;;;22.60;42.36;102319.13;4196866;28;20040;-64
2022/10/23 08:53:33;;;;;;;3.45;2.90;;;;;;;22.75;42.16;102345.28;4197663;28;20037;-64
2022/10/23 08:55:44;;;;;;;3.33;2.72;;;;;;;22.74;42.00;102346.38;4197483;28;20044;-64
2022/10/23 08:57:55;;;;;;;3.78;2.75;;;;;;;22.74;42.26;102357.53;4196330;28;20106;-64
2022/10/23 09:00:14;;;;;;;3.17;2.75;;;;;;;22.72;42.21;102343.00;4196690;28;20109;-64
2022/10/23 09:02:25;;;;;;;3.60;2.83;;;;;;;22.72;42.18;102340.19;4195650;28;20923;-64
2022/10/23 09:04:27;;;;;;;5.22;3.42;;;;;;;22.74;42.20;102340.78;4195608;28;20446;-64
2022/10/23 09:06:36;;;;;;;3.35;2.70;;;;;;;22.43;42.32;102292.13;4196019;28;20041;-64
2022/10/23 09:09:03;;;;;;;2.97;2.60;;;;;;;22.71;42.10;102352.47;4196757;28;20094;-64
2022/10/23 09:11:18;;;;;;;3.53;2.80;;;;;;;22.72;42.58;102348.56;4197347;28;20090;-64
2022/10/23 09:13:37;;;;;;;3.53;2.63;;;;;;;22.71;42.20;102344.09;4197772;28;20040;-65
2022/10/23 09:15:49;;;;;;;4.03;2.53;;;;;;;22.71;42.21;102349.69;4197337;28;20351;-63
2022/10/23 09:18:00;;;;;;;3.92;2.78;;;;;;;22.71;42.36;102352.47;4196077;28;20040;-63
2022/10/23 09:20:27;;;;;;;3.53;2.80;;;;;;;22.69;42.59;102343.53;4195320;28;20048;-63
2022/10/23 09:22:28;;;;;;;2.63;2.25;;;;;;;22.68;42.19;102344.63;4196658;28;20098;-63
2022/10/23 09:24:32;;;;;;;3.85;3.03;;;;;;;22.70;42.61;102358.31;4196177;28;20102;-63
2022/10/23 09:26:34;;;;;;;2.78;2.53;;;;;;;22.68;42.70;102355.81;4194967;28;20044;-63
2022/10/23 09:28:54;;;;;;;3.30;3.00;;;;;;;22.68;42.62;102358.59;4197336;28;20052;-63
2022/10/23 09:31:08;;;;;;;3.22;2.78;;;;;;;22.65;42.18;102347.94;4196437;28;20052;-63
2022/10/23 09:33:25;;;;;;;5.00;2.92;;;;;;;22.67;42.35;102356.88;4195865;28;20375;-62
2022/10/23 09:35:29;;;;;;;3.45;2.63;;;;;;;22.69;42.47;102349.09;4195363;28;20041;-63
2022/10/23 09:37:34;;;;;;;3.50;2.90;;;;;;;22.68;42.46;102347.44;4196375;28;20492;-63
2022/10/23 09:39:36;;;;;;;3.45;2.72;;;;;;;22.68;42.43;102346.56;4196802;28;20048;-62
2022/10/23 09:41:39;;;;;;;3.28;2.67;;;;;;;22.64;42.17;102346.25;4196645;28;20484;-63
2022/10/23 09:43:40;;;;;;;3.05;2.75;;;;;;;22.65;42.40;102333.97;4197348;28;20028;-63
2022/10/23 09:45:54;;;;;;;2.58;2.35;;;;;;;22.64;42.74;102335.09;4195852;28;20045;-62